createdAt,value
2023-05-11T00:01:49.442Z,11.70
2023-05-11T00:04:16.205Z,11.60
2023-05-11T00:06:42.986Z,11.60
2023-05-11T00:09:11.282Z,11.60
2023-05-11T00:11:38.270Z,11.70
2023-05-11T00:14:05.029Z,11.70
2023-05-11T00:16:31.843Z,11.70
2023-05-11T00:18:59.001Z,11.60
2023-05-11T00:21:25.980Z,11.60
2023-05-11T00:23:52.714Z,11.60
2023-05-11T00:26:19.413Z,11.60
2023-05-11T00:28:47.067Z,11.60
2023-05-11T00:31:14.316Z,11.60
2023-05-11T00:33:41.264Z,11.60
2023-05-11T00:36:08.148Z,11.70
2023-05-11T00:38:36.622Z,11.60
2023-05-11T00:41:03.454Z,11.60
2023-05-11T00:43:32.741Z,11.50
2023-05-11T00:45:59.494Z,11.50
2023-05-11T00:48:26.388Z,11.40
2023-05-11T00:50:54.262Z,11.50
2023-05-11T00:53:21.943Z,11.50
2023-05-11T00:55:48.718Z,11.50
2023-05-11T00:58:16.566Z,11.50
2023-05-11T01:00:44.363Z,11.50
2023-05-11T01:03:12.506Z,11.50
2023-05-11T01:05:49.689Z,11.40
2023-05-11T01:08:25.039Z,11.50
2023-05-11T01:11:11.430Z,11.50
2023-05-11T01:13:48.407Z,11.40
2023-05-11T01:16:20.439Z,11.40
2023-05-11T01:18:58.817Z,11.40
2023-05-11T01:21:29.996Z,11.30
2023-05-11T01:24:24.584Z,11.30
2023-05-11T01:27:20.659Z,11.40
2023-05-11T01:30:19.509Z,11.40
2023-05-11T01:32:47.451Z,11.40
2023-05-11T01:35:22.938Z,11.40
2023-05-11T01:37:53.676Z,11.40
2023-05-11T01:40:24.820Z,11.40
2023-05-11T01:43:01.261Z,11.40
2023-05-11T01:45:31.681Z,11.40
2023-05-11T01:48:02.985Z,11.40
2023-05-11T01:50:32.541Z,11.30
2023-05-11T01:53:02.720Z,11.30
2023-05-11T01:55:34.063Z,11.30
2023-05-11T01:58:03.242Z,11.30
2023-05-11T02:00:31.678Z,11.30
2023-05-11T02:03:01.770Z,11.20
2023-05-11T02:05:30.087Z,11.30
2023-05-11T02:08:00.160Z,11.30
2023-05-11T02:10:27.879Z,11.20
2023-05-11T02:12:55.564Z,11.20
2023-05-11T02:15:26.048Z,11.20
2023-05-11T02:17:54.515Z,11.20
2023-05-11T02:20:21.880Z,11.20
2023-05-11T02:22:49.847Z,11.20
2023-05-11T02:25:18.130Z,11.20
2023-05-11T02:27:45.249Z,11.20
2023-05-11T02:30:13.816Z,11.20
2023-05-11T02:32:49.432Z,11.10
2023-05-11T02:35:22.129Z,11.20
2023-05-11T02:37:53.916Z,11.10
2023-05-11T02:40:28.246Z,11.10
2023-05-11T02:42:59.553Z,11.10
2023-05-11T02:45:31.550Z,11.10
2023-05-11T02:48:00.555Z,11.10
2023-05-11T02:50:30.520Z,11.10
2023-05-11T02:53:01.440Z,11.00
2023-05-11T02:55:29.281Z,11.10
2023-05-11T02:57:56.377Z,11.00
2023-05-11T03:00:24.255Z,11.00
2023-05-11T03:02:51.637Z,11.00
2023-05-11T03:05:20.933Z,11.00
2023-05-11T03:07:47.698Z,11.00
2023-05-11T03:10:14.913Z,11.00
2023-05-11T03:12:44.693Z,11.00
2023-05-11T03:15:12.582Z,11.00
2023-05-11T03:17:43.063Z,11.00
2023-05-11T03:20:16.117Z,11.00
2023-05-11T03:22:45.753Z,11.00
2023-05-11T03:25:14.411Z,11.00
2023-05-11T03:27:42.475Z,11.00
2023-05-11T03:30:12.140Z,10.90
2023-05-11T03:32:43.332Z,10.90
2023-05-11T03:35:10.391Z,10.90
2023-05-11T03:37:39.101Z,10.90
2023-05-11T03:40:09.281Z,10.90
2023-05-11T03:42:46.300Z,10.90
2023-05-11T03:45:16.855Z,10.90
2023-05-11T03:47:45.384Z,11.00
2023-05-11T03:50:13.252Z,10.90
2023-05-11T03:52:41.704Z,10.90
2023-05-11T03:55:09.517Z,10.90
2023-05-11T03:57:36.741Z,10.90
2023-05-11T04:00:03.971Z,10.90
2023-05-11T04:02:31.161Z,10.90
2023-05-11T04:04:58.061Z,10.90
2023-05-11T04:07:24.929Z,11.00
2023-05-11T04:09:51.728Z,11.00
2023-05-11T04:12:18.612Z,11.00
2023-05-11T04:14:46.701Z,11.00
2023-05-11T04:17:13.467Z,11.00
2023-05-11T04:19:40.350Z,11.00
2023-05-11T04:22:07.156Z,11.00
2023-05-11T04:24:33.996Z,11.00
2023-05-11T04:27:01.209Z,11.00
2023-05-11T04:29:28.069Z,10.90
2023-05-11T04:31:54.849Z,10.90
2023-05-11T04:34:22.681Z,10.90
2023-05-11T04:36:50.835Z,11.00
2023-05-11T04:39:19.114Z,11.10
2023-05-11T04:41:46.720Z,11.10
2023-05-11T04:44:13.481Z,11.10
2023-05-11T04:46:40.313Z,11.10
2023-05-11T04:49:07.730Z,11.10
2023-05-11T04:51:37.028Z,11.10
2023-05-11T04:54:04.752Z,11.10
2023-05-11T04:56:31.785Z,11.20
2023-05-11T04:58:59.607Z,11.30
2023-05-11T05:01:26.465Z,11.30
2023-05-11T05:03:53.308Z,11.30
2023-05-11T05:06:20.316Z,11.40
2023-05-11T05:08:47.131Z,11.40
2023-05-11T05:11:14.990Z,11.40
2023-05-11T05:13:41.875Z,11.50
2023-05-11T05:16:08.645Z,11.50
2023-05-11T05:18:35.499Z,11.60
2023-05-11T05:21:02.738Z,11.60
2023-05-11T05:23:30.399Z,11.60
2023-05-11T05:25:57.186Z,11.60
2023-05-11T05:28:24.157Z,11.60
2023-05-11T05:30:51.389Z,11.60
2023-05-11T05:33:19.187Z,11.70
2023-05-11T05:35:46.812Z,11.60
2023-05-11T05:38:15.734Z,11.70
2023-05-11T05:40:42.512Z,11.70
2023-05-11T05:43:09.295Z,11.70
2023-05-11T05:45:36.084Z,11.80
2023-05-11T05:48:03.107Z,11.90
2023-05-11T05:50:31.154Z,11.90
2023-05-11T05:52:58.001Z,11.90
2023-05-11T05:55:26.818Z,12.00
2023-05-11T05:57:54.777Z,11.90
2023-05-11T06:00:22.054Z,12.00
2023-05-11T06:02:57.130Z,12.00
2023-05-11T06:05:26.438Z,12.00
2023-05-11T06:08:08.378Z,12.00
2023-05-11T06:10:37.600Z,12.10
2023-05-11T06:13:05.462Z,12.10
2023-05-11T06:15:32.403Z,12.20
2023-05-11T06:18:07.261Z,12.20
2023-05-11T06:20:35.035Z,12.20
2023-05-11T06:23:03.351Z,12.20
2023-05-11T06:25:30.272Z,12.10
2023-05-11T06:27:57.119Z,12.20
2023-05-11T06:30:24.054Z,12.10
2023-05-11T06:32:52.932Z,12.20
2023-05-11T06:35:22.457Z,12.20
2023-05-11T06:37:51.135Z,12.20
2023-05-11T06:40:19.062Z,12.30
2023-05-11T06:42:46.321Z,12.30
2023-05-11T06:45:13.152Z,12.20
2023-05-11T06:47:42.366Z,12.10
2023-05-11T06:50:09.907Z,12.20
2023-05-11T06:52:38.192Z,12.30
2023-05-11T06:55:05.781Z,12.30
2023-05-11T06:57:32.598Z,12.30
2023-05-11T06:59:59.486Z,12.30
2023-05-11T07:02:26.236Z,12.40
2023-05-11T07:04:53.097Z,12.50
2023-05-11T07:07:20.021Z,12.50
2023-05-11T07:09:46.798Z,12.50
2023-05-11T07:12:13.597Z,12.40
2023-05-11T07:14:40.458Z,12.50
2023-05-11T07:17:07.690Z,12.40
2023-05-11T07:19:34.418Z,12.50
2023-05-11T07:22:02.085Z,12.60
2023-05-11T07:24:28.822Z,12.50
2023-05-11T07:26:57.389Z,12.60
2023-05-11T07:29:24.188Z,12.70
2023-05-11T07:31:51.588Z,12.70
2023-05-11T07:34:18.450Z,12.70
2023-05-11T07:36:46.445Z,12.60
2023-05-11T07:39:13.388Z,12.60
2023-05-11T07:41:40.265Z,12.70
2023-05-11T07:44:07.032Z,12.60
2023-05-11T07:46:33.849Z,12.70
2023-05-11T07:49:14.427Z,12.70
2023-05-11T07:51:44.846Z,12.70
2023-05-11T07:54:11.689Z,12.70
2023-05-11T07:56:38.419Z,12.70
2023-05-11T07:59:05.216Z,12.70
2023-05-11T08:01:32.485Z,12.70
2023-05-11T08:03:59.303Z,12.80
2023-05-11T08:06:26.157Z,12.80
2023-05-11T08:08:52.976Z,12.80
2023-05-11T08:11:19.754Z,12.80
2023-05-11T08:13:46.544Z,12.70
2023-05-11T08:16:13.322Z,12.80
2023-05-11T08:18:40.298Z,12.90
2023-05-11T08:21:07.694Z,13.00
2023-05-11T08:23:34.954Z,13.00
2023-05-11T08:26:01.674Z,12.90
2023-05-11T08:28:28.508Z,12.90
2023-05-11T08:30:59.052Z,13.00
2023-05-11T08:33:37.654Z,12.90
2023-05-11T08:36:06.441Z,13.00
2023-05-11T08:38:33.464Z,13.00
2023-05-11T08:41:02.133Z,13.00
2023-05-11T08:43:30.331Z,13.00
2023-05-11T08:46:02.731Z,13.00
2023-05-11T08:48:30.879Z,13.00
2023-05-11T08:50:58.103Z,13.00
2023-05-11T08:53:24.969Z,13.10
2023-05-11T08:55:52.185Z,13.10
2023-05-11T08:58:22.202Z,13.20
2023-05-11T09:00:49.939Z,13.20
2023-05-11T09:03:20.257Z,13.10
2023-05-11T09:05:48.263Z,13.20
2023-05-11T09:08:18.117Z,13.20
2023-05-11T09:10:44.937Z,13.20
2023-05-11T09:13:12.299Z,13.30
2023-05-11T09:15:39.233Z,13.30
2023-05-11T09:18:06.986Z,13.40
2023-05-11T09:20:34.715Z,13.40
2023-05-11T09:23:01.794Z,13.40
2023-05-11T09:25:34.950Z,13.50
2023-05-11T09:28:01.842Z,13.40
2023-05-11T09:30:28.726Z,13.40
2023-05-11T09:33:00.232Z,13.40
2023-05-11T09:35:28.906Z,13.40
2023-05-11T09:38:06.081Z,13.50
2023-05-11T09:40:36.802Z,13.50
2023-05-11T09:43:17.188Z,13.40
2023-05-11T09:45:45.774Z,13.50
2023-05-11T09:48:21.499Z,13.60
2023-05-11T09:50:49.426Z,13.50
2023-05-11T09:53:17.124Z,13.60
2023-05-11T09:55:55.208Z,13.60
2023-05-11T09:58:22.526Z,13.70
2023-05-11T10:00:54.102Z,13.70
2023-05-11T10:03:21.057Z,13.70
2023-05-11T10:06:00.904Z,13.50
2023-05-11T10:08:32.607Z,13.60
2023-05-11T10:11:01.120Z,13.70
2023-05-11T10:13:28.240Z,13.80
2023-05-11T10:15:56.517Z,13.80
2023-05-11T10:18:23.761Z,13.70
2023-05-11T10:20:51.214Z,13.80
2023-05-11T10:23:19.771Z,13.70
2023-05-11T10:25:47.872Z,13.80
2023-05-11T10:28:15.416Z,13.80
2023-05-11T10:30:43.008Z,13.80
2023-05-11T10:33:10.951Z,13.70
2023-05-11T10:35:39.433Z,13.80
2023-05-11T10:38:08.159Z,13.80
2023-05-11T10:40:38.506Z,13.80
2023-05-11T10:43:23.314Z,13.90
2023-05-11T10:45:52.847Z,13.80
2023-05-11T10:48:28.749Z,13.90
2023-05-11T10:51:01.833Z,13.90
2023-05-11T10:53:57.366Z,13.90
2023-05-11T10:56:45.560Z,13.90
2023-05-11T10:59:42.362Z,14.00
2023-05-11T11:02:09.362Z,13.90
2023-05-11T11:04:46.906Z,14.00
2023-05-11T11:07:18.159Z,14.00
2023-05-11T11:09:59.348Z,14.00
2023-05-11T11:12:28.115Z,14.00
2023-05-11T11:14:59.079Z,14.00
2023-05-11T11:17:29.100Z,14.10
2023-05-11T11:19:57.371Z,14.10
2023-05-11T11:22:36.306Z,14.20
2023-05-11T11:25:10.294Z,14.30
2023-05-11T11:27:48.714Z,14.30
2023-05-11T11:30:23.906Z,14.20
2023-05-11T11:32:55.402Z,14.30
2023-05-11T11:35:41.415Z,14.30
2023-05-11T11:38:10.600Z,14.30
2023-05-11T11:40:52.542Z,14.30
2023-05-11T11:43:22.628Z,14.10
2023-05-11T11:45:55.994Z,14.30
2023-05-11T11:48:24.408Z,14.30
2023-05-11T11:51:04.102Z,14.40
2023-05-11T11:53:41.279Z,14.40
2023-05-11T11:56:28.308Z,14.30
2023-05-11T11:59:03.431Z,14.40
2023-05-11T12:01:37.600Z,14.50
2023-05-11T12:04:04.522Z,14.40
2023-05-11T12:06:43.129Z,14.40
2023-05-11T12:09:10.463Z,14.50
2023-05-11T12:11:38.277Z,14.60
2023-05-11T12:14:06.386Z,14.50
2023-05-11T12:16:33.266Z,14.60
2023-05-11T12:19:02.188Z,14.60
2023-05-11T12:21:33.547Z,14.70
2023-05-11T12:24:04.435Z,14.70
2023-05-11T12:26:33.447Z,14.60
2023-05-11T12:29:14.527Z,14.60
2023-05-11T12:31:46.452Z,14.60
2023-05-11T12:34:18.656Z,14.60
2023-05-11T12:36:46.903Z,14.60
2023-05-11T12:39:24.724Z,14.40
2023-05-11T12:41:53.622Z,14.40
2023-05-11T12:44:21.580Z,14.50
2023-05-11T12:46:49.755Z,14.50
2023-05-11T12:49:24.666Z,14.50
2023-05-11T12:51:55.975Z,14.50
2023-05-11T12:54:34.116Z,14.50
2023-05-11T12:57:02.803Z,14.40
2023-05-11T12:59:37.891Z,14.40
2023-05-11T13:02:08.392Z,14.50
2023-05-11T13:04:35.463Z,14.60
2023-05-11T13:07:02.382Z,14.60
2023-05-11T13:09:29.476Z,14.60
2023-05-11T13:12:18.537Z,14.50
2023-05-11T13:14:50.995Z,14.40
2023-05-11T13:17:39.066Z,14.30
2023-05-11T13:20:28.010Z,14.30
2023-05-11T13:23:09.581Z,14.30
2023-05-11T13:25:53.891Z,14.40
2023-05-11T13:28:24.265Z,14.30
2023-05-11T13:30:57.999Z,14.30
2023-05-11T13:33:25.071Z,14.20
2023-05-11T13:35:51.843Z,14.30
2023-05-11T13:38:18.591Z,14.30
2023-05-11T13:40:45.774Z,14.30
2023-05-11T13:43:12.535Z,14.20
2023-05-11T13:45:41.360Z,14.20
2023-05-11T13:48:08.641Z,14.30
2023-05-11T13:50:35.705Z,14.30
2023-05-11T13:53:02.546Z,14.10
2023-05-11T13:55:31.019Z,14.00
2023-05-11T13:57:58.089Z,14.10
2023-05-11T14:00:25.221Z,14.10
2023-05-11T14:02:52.679Z,14.10
2023-05-11T14:05:20.163Z,14.10
2023-05-11T14:07:48.749Z,14.10
2023-05-11T14:10:17.291Z,14.20
2023-05-11T14:12:44.696Z,14.20
2023-05-11T14:15:11.719Z,14.10
2023-05-11T14:17:38.715Z,14.20
2023-05-11T14:20:06.704Z,14.20
2023-05-11T14:22:33.535Z,14.20
2023-05-11T14:25:01.851Z,14.20
2023-05-11T14:27:28.844Z,14.20
2023-05-11T14:29:56.313Z,14.20
2023-05-11T14:32:23.252Z,14.20
2023-05-11T14:34:49.983Z,14.20
2023-05-11T14:37:16.739Z,14.40
2023-05-11T14:39:43.867Z,14.20
2023-05-11T14:42:10.851Z,14.20
2023-05-11T14:44:37.944Z,14.10
2023-05-11T14:47:05.731Z,14.10
2023-05-11T14:49:32.529Z,14.10
2023-05-11T14:51:59.488Z,14.10
2023-05-11T14:54:26.452Z,14.10
2023-05-11T14:56:55.467Z,14.00
2023-05-11T14:59:26.464Z,14.10
2023-05-11T15:01:53.574Z,14.10
2023-05-11T15:04:20.597Z,14.10
2023-05-11T15:06:47.823Z,14.10
2023-05-11T15:09:14.860Z,14.20
2023-05-11T15:11:41.623Z,14.10
2023-05-11T15:14:08.685Z,14.00
2023-05-11T15:16:35.503Z,14.10
2023-05-11T15:19:02.447Z,14.10
2023-05-11T15:21:29.515Z,14.20
2023-05-11T15:23:56.368Z,14.20
2023-05-11T15:26:23.496Z,14.10
2023-05-11T15:28:50.513Z,14.00
2023-05-11T15:31:17.449Z,14.10
2023-05-11T15:33:44.791Z,14.10
2023-05-11T15:36:13.252Z,14.10
2023-05-11T15:38:41.095Z,14.00
2023-05-11T15:41:07.950Z,14.10
2023-05-11T15:43:35.175Z,14.10
2023-05-11T15:46:03.815Z,14.10
2023-05-11T15:48:31.169Z,14.10
2023-05-11T15:51:00.119Z,14.10
2023-05-11T15:53:27.627Z,14.00
2023-05-11T15:55:55.873Z,14.00
2023-05-11T15:58:23.110Z,14.10
2023-05-11T16:00:50.393Z,14.10
2023-05-11T16:03:17.745Z,14.00
2023-05-11T16:05:45.567Z,14.00
2023-05-11T16:08:13.102Z,14.00
2023-05-11T16:10:39.942Z,14.00
2023-05-11T16:13:08.152Z,14.00
2023-05-11T16:15:34.965Z,13.90
2023-05-11T16:18:04.679Z,13.90
2023-05-11T16:20:32.224Z,13.90
2023-05-11T16:22:59.123Z,13.90
2023-05-11T16:25:26.144Z,13.80
2023-05-11T16:27:52.909Z,13.90
2023-05-11T16:30:24.789Z,13.90
2023-05-11T16:32:53.873Z,13.90
2023-05-11T16:35:21.261Z,13.80
2023-05-11T16:37:48.489Z,13.90
2023-05-11T16:40:19.385Z,13.90
2023-05-11T16:42:47.564Z,13.80
2023-05-11T16:45:15.117Z,13.90
2023-05-11T16:47:42.842Z,13.90
2023-05-11T16:50:10.776Z,13.90
2023-05-11T16:52:37.703Z,13.90
2023-05-11T16:55:04.927Z,13.90
2023-05-11T16:57:31.679Z,13.80
2023-05-11T16:59:58.409Z,13.80
2023-05-11T17:02:25.548Z,13.90
2023-05-11T17:04:52.341Z,13.80
2023-05-11T17:07:19.114Z,13.90
2023-05-11T17:09:45.969Z,13.80
2023-05-11T17:12:12.698Z,13.90
2023-05-11T17:14:39.467Z,13.80
2023-05-11T17:17:08.143Z,13.80
2023-05-11T17:19:34.882Z,13.80
2023-05-11T17:22:01.635Z,13.80
2023-05-11T17:24:28.738Z,13.80
2023-05-11T17:26:55.801Z,13.70
2023-05-11T17:29:22.870Z,13.70
2023-05-11T17:31:51.616Z,13.70
2023-05-11T17:34:19.743Z,13.60
2023-05-11T17:36:47.865Z,13.70
2023-05-11T17:39:16.383Z,13.60
2023-05-11T17:41:43.585Z,13.60
2023-05-11T17:44:10.842Z,13.60
2023-05-11T17:46:37.561Z,13.60
2023-05-11T17:49:05.274Z,13.60
2023-05-11T17:51:32.818Z,13.50
2023-05-11T17:53:59.601Z,13.50
2023-05-11T17:56:26.443Z,13.50
2023-05-11T17:58:53.233Z,13.50
2023-05-11T18:01:21.529Z,13.60
2023-05-11T18:03:48.531Z,13.60
2023-05-11T18:06:16.690Z,13.50
2023-05-11T18:08:43.906Z,13.50
2023-05-11T18:11:12.659Z,13.60
2023-05-11T18:13:39.671Z,13.50
2023-05-11T18:16:07.216Z,13.50
2023-05-11T18:18:34.416Z,13.60
2023-05-11T18:21:05.790Z,13.50
2023-05-11T18:23:33.072Z,13.50
2023-05-11T18:25:59.876Z,13.50
2023-05-11T18:28:26.651Z,13.50
2023-05-11T18:30:54.132Z,13.50
2023-05-11T18:33:20.996Z,13.40
2023-05-11T18:35:48.094Z,13.50
2023-05-11T18:38:14.911Z,13.50
2023-05-11T18:40:42.025Z,13.50
2023-05-11T18:43:09.365Z,13.50
2023-05-11T18:45:36.255Z,13.40
2023-05-11T18:48:03.891Z,13.40
2023-05-11T18:50:31.516Z,13.40
2023-05-11T18:52:58.335Z,13.40
2023-05-11T18:55:27.728Z,13.40
2023-05-11T18:57:58.169Z,13.50
2023-05-11T19:00:24.945Z,13.40
2023-05-11T19:02:54.307Z,13.40
2023-05-11T19:05:21.812Z,13.50
2023-05-11T19:07:48.747Z,13.40
2023-05-11T19:10:16.670Z,13.40
2023-05-11T19:12:43.442Z,13.40
2023-05-11T19:15:10.319Z,13.40
2023-05-11T19:17:37.092Z,13.40
2023-05-11T19:20:04.945Z,13.30
2023-05-11T19:22:32.004Z,13.40
2023-05-11T19:24:59.101Z,13.30
2023-05-11T19:27:25.947Z,13.40
2023-05-11T19:29:52.976Z,13.30
2023-05-11T19:32:19.950Z,13.30
2023-05-11T19:34:46.860Z,13.20
2023-05-11T19:37:13.618Z,13.30
2023-05-11T19:39:40.842Z,13.30
2023-05-11T19:42:07.675Z,13.30
2023-05-11T19:44:37.862Z,13.30
2023-05-11T19:47:04.723Z,13.20
2023-05-11T19:49:31.406Z,13.10
2023-05-11T19:51:58.141Z,13.20
2023-05-11T19:54:25.016Z,13.30
2023-05-11T19:56:51.794Z,13.20
2023-05-11T19:59:19.404Z,13.20
2023-05-11T20:01:46.749Z,13.20
2023-05-11T20:04:14.985Z,13.30
2023-05-11T20:06:41.960Z,13.30
2023-05-11T20:09:09.046Z,13.20
2023-05-11T20:11:35.782Z,13.20
2023-05-11T20:14:02.900Z,13.20
2023-05-11T20:16:30.766Z,13.30
2023-05-11T20:18:59.330Z,13.30
2023-05-11T20:21:26.567Z,13.30
2023-05-11T20:23:53.453Z,13.30
2023-05-11T20:26:20.336Z,13.30
2023-05-11T20:28:47.183Z,13.30
2023-05-11T20:31:13.944Z,13.30
2023-05-11T20:36:14.183Z,13.20
2023-05-11T20:38:41.102Z,13.30
2023-05-11T20:41:07.929Z,13.20
2023-05-11T20:43:34.680Z,13.30
2023-05-11T20:46:03.417Z,13.20
2023-05-11T20:48:39.862Z,13.20
2023-05-11T20:51:08.573Z,13.20
2023-05-11T20:53:35.401Z,13.30
2023-05-11T20:56:03.151Z,13.20
2023-05-11T20:58:31.590Z,13.10
2023-05-11T21:00:58.718Z,13.10
2023-05-11T21:03:26.771Z,13.10
2023-05-11T21:05:53.704Z,13.10
2023-05-11T21:08:20.713Z,13.10
2023-05-11T21:10:47.623Z,13.20
2023-05-11T21:13:14.467Z,13.10
2023-05-11T21:15:41.290Z,13.10
2023-05-11T21:18:08.392Z,13.10
2023-05-11T21:20:36.286Z,13.10
2023-05-11T21:23:03.537Z,13.10
2023-05-11T21:25:30.320Z,13.10
2023-05-11T21:27:57.094Z,13.10
2023-05-11T21:30:23.818Z,13.00
2023-05-11T21:32:50.774Z,13.00
2023-05-11T21:35:17.918Z,13.00
2023-05-11T21:37:49.773Z,13.00
2023-05-11T21:40:18.032Z,13.00
2023-05-11T21:42:45.122Z,12.90
2023-05-11T21:45:12.488Z,12.90
2023-05-11T21:47:39.532Z,12.90
2023-05-11T21:50:08.462Z,12.90
2023-05-11T21:52:36.348Z,12.90
2023-05-11T21:55:03.368Z,12.90
2023-05-11T21:57:30.130Z,12.90
2023-05-11T21:59:56.858Z,12.70
2023-05-11T22:02:23.632Z,12.90
2023-05-11T22:04:50.600Z,12.90
2023-05-11T22:07:17.636Z,12.80
2023-05-11T22:09:44.480Z,12.80
2023-05-11T22:12:11.897Z,12.80
2023-05-11T22:14:38.710Z,12.80
2023-05-11T22:17:05.635Z,12.70
2023-05-11T22:19:33.405Z,12.70
2023-05-11T22:22:00.284Z,12.70
2023-05-11T22:24:27.237Z,12.80
2023-05-11T22:26:54.378Z,12.80
2023-05-11T22:29:21.909Z,12.80
2023-05-11T22:31:52.029Z,12.80
2023-05-11T22:34:21.324Z,12.70
2023-05-11T22:36:48.218Z,12.70
2023-05-11T22:39:15.039Z,12.70
2023-05-11T22:41:41.893Z,12.80
2023-05-11T22:44:09.296Z,12.80
2023-05-11T22:46:36.100Z,12.80
2023-05-11T22:49:02.872Z,12.70
2023-05-11T22:51:29.648Z,12.70
2023-05-11T22:53:56.405Z,12.70
2023-05-11T22:56:23.315Z,12.70
2023-05-11T22:58:50.235Z,12.70
2023-05-11T23:01:17.222Z,12.60
2023-05-11T23:03:44.442Z,12.60
2023-05-11T23:06:12.257Z,12.60
2023-05-11T23:08:39.390Z,12.60
2023-05-11T23:11:07.583Z,12.50
2023-05-11T23:13:34.952Z,12.60
2023-05-11T23:16:03.848Z,12.60
2023-05-11T23:18:31.400Z,12.50
2023-05-11T23:20:59.689Z,12.50
2023-05-11T23:23:27.000Z,12.50
2023-05-11T23:25:53.894Z,12.40
2023-05-11T23:28:20.908Z,12.50
2023-05-11T23:30:48.404Z,12.40
2023-05-11T23:33:15.258Z,12.30
2023-05-11T23:35:42.132Z,12.40
2023-05-11T23:38:09.054Z,12.40
2023-05-11T23:40:36.242Z,12.30
2023-05-11T23:43:03.213Z,12.40
2023-05-11T23:45:30.758Z,12.30
2023-05-11T23:47:57.647Z,12.30
2023-05-11T23:50:24.454Z,12.30
2023-05-11T23:52:51.675Z,12.40
2023-05-11T23:55:18.514Z,12.30
2023-05-11T23:57:45.240Z,12.30
